Hundreds of Positions Available Nationwide

Apply for an Exciting Career Opportunity!


The following jobs are currently available.
Click on the job to find out more about the requirements for the position.

#Job IDTitle# OpeningsLocationRateDurationPostedCategory 
1 184310 Warehouse Associate 1Mountainside, NJ$13.09 to $13.81 DOE1 year01/24/2020GENO,
2 184295 CNC Operator 1Santa Maria, CAUp to $11.00 DOE3 Months01/23/2020GENO,
3 184267 Warehouse Associate 1San Jose, CA$DOE12 Months01/22/2020GENO,
4 184268 Assembler 1Oldsmar, FL$DOE12 months01/22/2020GENO,
5 184194 Packaging/Labeling Technician I 1Indianapolis, INUp to $13.75 DOE 01/21/2020GENO,
6 184195 Production/Inventory Coordinator A 4Mesa, AZ$DOE 01/21/2020GENO,
7 184201 Material Handler I 1Grand Island, NY$DOE11 mos01/21/2020GENO,
8 184205 Equipment Control Coordinator 1Torrance, CA$17 to $24.00 DOE4 Months01/21/2020GENO,
9 184213 Material Handler 1Asheville, NC$DOE12 Months01/21/2020GENO,
10 184157 Warehouse Associate 1Tracy, CA$DOE12 mos01/20/2020GENO,
11 184158 Warehouse Associate 1Tracy, CA$DOE12 mos01/20/2020GENO,
12 184159 Warehouse Associate 1Tracy, CAUp to $16.00 DOE12 mos01/20/2020GENO,
13 184161 Manufacturing Support Coordinator 1Carlsbad, CAUp to $14.50 DOE6 mos01/20/2020GENO,
14 184170 Product Repair/Mod Technician C 1Eglin AFB, FL$DOE12 Months01/20/2020GENO, S
15 184171 Product Repair/Mod Technician C 2Eglin AFB, FL$DOE12 Months01/20/2020GENO, S
16 184172 Product Repair/Mod Technician C 1Eglin AFB, FL$DOE12 Months01/20/2020GENO, S
17 184173 APG Mechanic 1Greenville, SC$DOE8 months01/20/2020GENO,
18 184175 Material Handler 1Grand Island, NY$DOE11 Months01/20/2020GENO,
19 184183 Production/Inventory Coordinator A 1North Charleston, SC$DOE6 Months01/20/2020GENHSM,
20 184192 General Maintenance Worker 1Manassas, VA$DOE5 months01/20/2020GENO, I
21 184193 Electrician 1Manassas, VA$DOE6 months01/20/2020GENO, I
22 184148 Production/Inventory Coordinator B 1Albuquerque, NM$DOE12 Months01/17/2020GENO,
23 184108 Operator II, Manufacturing 1West Hills, CAUp to $15.00 DOE12 mos01/16/2020GENO,
24 184123 Material Handler 1San Diego, CAUp to $15.00 DOE12 Months01/16/2020GENO,
25 184125 Material Handler 1San Diego, CAUp to $15.00 DOE12 Months01/16/2020GENO,
26 184092 Shipping/Receiving Specialist A 1Smithfield, PA$DOE12 Months01/15/2020GENO,
27 184100 General Maintenance Worker 1Coronado Island, CA$DOE4 months01/15/2020GENO, I
28 184069 Material Handler 1Oakwood Village, OHUp to $12.00 DOE6 Months01/14/2020GENO,
29 184070 Assembler 1Manassas, VA$DOE12 months01/14/2020GENO,
30 184083 Assembler I 1Lancaster, NY$DOE4 MONTHS01/14/2020GENO,
31 184047 Manufacturing Inventory Floor Controller 1Carlsbad, CAUp to $15.00 DOE12 Months01/13/2020GENO,
32 184052 Material Handler 1Oakwood Village, OH$DOE12 Months01/13/2020GENO,
33 183898 Shipping/Receiving Specialist B 1Oklahoma City, OK$DOE12 months01/07/2020GENO, S
34 183880 Production/Inventory Coordinator B 1Jacksonville, FL$DOE12 Months01/06/2020GENHSM,
35 183835 General Laborer I 1Santa Maria, CA$DOE6 months12/31/2019GENO,
36 183830 Assembler II 1Carson, CA$DOE8 MONTHS12/30/2019GENO,
37 183768 Material Handler 1Huntsville, AL$DOE3 Months12/23/2019GENO,
38 183774 Aircraft Painter C 1North Charleston, SC$DOE6 Months12/23/2019GENO,
39 183775 Aircraft Painter A 20North Charleston, SC$DOE6 months12/23/2019GENO,
40 183776 Aircraft Painter B 20North Charleston, SC$DOE6 Months12/23/2019GENO,
41 183790 General Laborer II 1Santa Maria, CA$DOE8 months12/23/2019GENO,
42 183691 General Laborer I 1Santa Maria, CA$DOE6 months12/18/2019GENO,
43 183697 General Laborer I 1Santa Maria, CA$DOE6 MONTHS12/18/2019GENO,
44 183699 Assembler I 1Santa Maria, CA$DOE6 MONTHS12/18/2019GENO,
45 183700 General Laborer I 1Santa Maria, CA$DOE6 MONTHS12/18/2019GENO,
46 183702 Expeditor 1Simi Valley, CA$25 to $28.00 DOE5 Months12/18/2019GENO,
47 183672 Packaging Technician 1Indianapolis, INUp to $13.75 DOE12 Months12/17/2019GENO,
48 183636 Bonder 1Cypress, CA$12.5 to $14.00 DOE6+ Months12/16/2019GENO,
49 183556 Production Clerk 1Louisville, KY$DOE9 months12/12/2019GENO,
50 183559 Material Handler 1Carlsbad, CAUp to $14.00 DOE12 Months12/12/2019GENO,
51 183525 Shipping and Receiving Clerk 1Alpharetta, GAUp to $20.00 DOE6 Months12/11/2019GENO,
52 183544 Assembler 4Oldsmar, FL$DOE12 months12/11/2019GENO,
53 183546 Logistics Management Analyst 2Tampa, FL$DOE 12/11/2019GENO, S
54 183418 Material Control Coordinator 1Rancho Bernardo, CA$DOE3 Months12/06/2019GENO,
55 183402 Logistics Clerk 1Golden Valley, MN$DOE3 MONTHS12/05/2019GENO,
56 183407 Shipping/Receiving Assistant 1Fort Worth, TX$DOE11 months12/05/2019GENO, I
57 183362 Material Handler 1Scotts Valley, CAUp to $25.00 DOE12 mmos12/04/2019GENO,
58 183336 Receiving Clerk 1Cypress, CA$13 to $14.00 DOE6 Months12/03/2019GENO,
59 183233 Logistics Clerk 1Tempe, AZ$DOE12 months11/25/2019GENO,
60 183235 Production Control Support Associate 1Owego, NY$DOE12 months11/25/2019GENO,
61 183209 Material Control Coordinator 1Tupelo, MS$DOE3-6 Months11/22/2019GENO,
62 183176 Material Handler 1Grand Island, NYUp to $14.00 DOE12 Months11/20/2019GENO,
63 183177 Material Handler 1Grand Island, NYUp to $14.50 DOE12 Months11/20/2019GENO,
64 183141 Assembler 1Santa Maria, CAUp to $12.00 DOE6 Months11/19/2019GENO,
65 183146 Stock Assistant 2Syracuse, NY$DOE12 MONTHS11/19/2019GENO,
66 183093 Material Handler 1Grand Island, NYUp to $14.50 DOE11 Months11/18/2019GENO,
67 183095 Material Handler 1Grand Island, NY$DOE12 Months11/18/2019GENO,
68 182913 Material Coordinator 1San Antonio, TX$DOE6 MONTHS11/10/2019GENO,
69 182871 Composite Technician 25Mesa, AZ$DOE12 Months11/06/2019GENO,
70 182678 Associate Equipment Operator, Folder- Gluer 1Bohemia, NYUp to $16.50 DOE12 mos10/30/2019GENO,
71 182592 Material Control Coordinator 1Fredericksburg, VA$DOE2 Months10/24/2019GENO,
72 182364 Shipping Clerk 1Cypress, CA$DOE6 Months10/15/2019GENO,
73 182286 LOGISTIC CLERK 1HUNTINGTON BEACH, CA$DOE5-6 months10/11/2019GENO,
74 182099 Janitor 2Pinellas Park, FL$DOE18 MONTHS10/03/2019GENO,
75 182008 Stock Assistant 1Syracuse, NY$17 to $18.00 DOECTH10/01/2019GENO,
76 181950 Fill and Fair Associate 1Cypress, CA$DOE 09/27/2019GENO,
77 181906 General Maintenance Worker 1Coronado Island, CA$DOE4 MONTHS09/26/2019GENO, OM
78 181765 Depot Service Technician 1Tewksbury, MAUp to $22.00 DOE12 mos09/23/2019GENO,
79 181209 Material Handler 1Alpharetta, GAUp to $20.00 DOE10 Months08/23/2019GENO,
80 180418 Shipping/Receiving Clerks 1Ogden, UT$DOE5 months07/16/2019GENO,
81 180163 Fabrication Specialist A 7Salt Lake City, UT$DOE12 Months07/02/2019GENHSM,
82 180155 Aircraft Mechanic II 1Lexington, KY$DOE3 MONTHS07/01/2019GENO, I
83 179939 Composite Technician 20Mesa, AZ$DOE12 Months06/19/2019GENO,
84 178643 Maritime Electrician 11San Diego, CA$22 to $28.00 DOE9 Months04/11/2019GENO,
Search request
Documents found: